sensor_id;sensor_type;location;lat;lon;timestamp;noise_LAeq;noise_LA_min;noise_LA_max;noise_LA01;noise_LA95
59691;Laerm;45592;52.094;4.330;2022-09-14T00:03:33;47.57;46.30;53.41;;
59691;Laerm;45592;52.094;4.330;2022-09-14T00:06:06;47.58;46.32;54.54;;
59691;Laerm;45592;52.094;4.330;2022-09-14T00:08:32;47.68;46.20;54.90;;
59691;Laerm;45592;52.094;4.330;2022-09-14T00:10:57;47.61;46.30;55.15;;
59691;Laerm;45592;52.094;4.330;2022-09-14T00:13:23;47.61;46.18;54.82;;
59691;Laerm;45592;52.094;4.330;2022-09-14T00:15:48;47.64;46.23;54.23;;
59691;Laerm;45592;52.094;4.330;2022-09-14T00:18:16;47.57;46.18;53.33;;
59691;Laerm;45592;52.094;4.330;2022-09-14T00:20:41;47.59;46.25;53.37;;
59691;Laerm;45592;52.094;4.330;2022-09-14T00:23:06;47.60;46.13;55.20;;
59691;Laerm;45592;52.094;4.330;2022-09-14T00:25:32;47.62;46.10;53.64;;
59691;Laerm;45592;52.094;4.330;2022-09-14T00:27:57;47.60;46.13;54.96;;
59691;Laerm;45592;52.094;4.330;2022-09-14T00:30:23;47.62;46.23;55.41;;
59691;Laerm;45592;52.094;4.330;2022-09-14T00:32:50;47.61;46.22;54.52;;
59691;Laerm;45592;52.094;4.330;2022-09-14T00:35:15;47.59;46.20;53.40;;
59691;Laerm;45592;52.094;4.330;2022-09-14T00:37:41;47.58;46.20;53.33;;
59691;Laerm;45592;52.094;4.330;2022-09-14T00:40:07;47.58;46.20;55.07;;
59691;Laerm;45592;52.094;4.330;2022-09-14T00:42:33;47.61;46.23;53.88;;
59691;Laerm;45592;52.094;4.330;2022-09-14T00:45:03;47.56;46.28;53.29;;
59691;Laerm;45592;52.094;4.330;2022-09-14T00:47:30;47.60;46.33;54.86;;
59691;Laerm;45592;52.094;4.330;2022-09-14T00:49:56;47.63;46.10;55.20;;
59691;Laerm;45592;52.094;4.330;2022-09-14T00:52:26;47.57;46.15;54.73;;
59691;Laerm;45592;52.094;4.330;2022-09-14T00:54:58;47.60;46.18;53.35;;
59691;Laerm;45592;52.094;4.330;2022-09-14T00:57:27;47.62;46.15;55.24;;
59691;Laerm;45592;52.094;4.330;2022-09-14T00:59:53;47.57;46.25;53.38;;
59691;Laerm;45592;52.094;4.330;2022-09-14T01:02:21;47.58;46.10;55.09;;
59691;Laerm;45592;52.094;4.330;2022-09-14T01:04:48;47.60;46.35;53.82;;
59691;Laerm;45592;52.094;4.330;2022-09-14T01:07:30;47.53;46.07;55.00;;
59691;Laerm;45592;52.094;4.330;2022-09-14T01:10:04;47.56;46.18;55.21;;
59691;Laerm;45592;52.094;4.330;2022-09-14T01:12:43;47.61;46.20;55.28;;
59691;Laerm;45592;52.094;4.330;2022-09-14T01:20:43;47.59;46.18;53.35;;
59691;Laerm;45592;52.094;4.330;2022-09-14T01:32:11;47.58;46.15;55.22;;
59691;Laerm;45592;52.094;4.330;2022-09-14T01:34:44;47.58;46.25;55.42;;
59691;Laerm;45592;52.094;4.330;2022-09-14T01:37:30;47.57;46.23;54.22;;
59691;Laerm;45592;52.094;4.330;2022-09-14T01:40:02;47.59;46.28;55.07;;
59691;Laerm;45592;52.094;4.330;2022-09-14T01:42:30;47.63;46.20;55.38;;
59691;Laerm;45592;52.094;4.330;2022-09-14T01:45:00;47.59;46.28;54.81;;
59691;Laerm;45592;52.094;4.330;2022-09-14T01:47:30;47.58;46.13;55.35;;
59691;Laerm;45592;52.094;4.330;2022-09-14T01:50:03;47.57;46.13;54.97;;
59691;Laerm;45592;52.094;4.330;2022-09-14T01:52:37;47.55;46.23;53.49;;
59691;Laerm;45592;52.094;4.330;2022-09-14T01:55:12;47.54;46.10;54.19;;
59691;Laerm;45592;52.094;4.330;2022-09-14T01:57:47;47.57;46.05;55.32;;
59691;Laerm;45592;52.094;4.330;2022-09-14T02:00:19;47.55;46.25;53.36;;
59691;Laerm;45592;52.094;4.330;2022-09-14T02:03:11;47.56;46.28;54.79;;
59691;Laerm;45592;52.094;4.330;2022-09-14T02:05:55;47.61;46.13;53.47;;
59691;Laerm;45592;52.094;4.330;2022-09-14T02:08:25;47.59;46.23;55.12;;
59691;Laerm;45592;52.094;4.330;2022-09-14T02:10:51;47.59;46.18;54.74;;
59691;Laerm;45592;52.094;4.330;2022-09-14T02:13:17;47.54;46.30;55.44;;
59691;Laerm;45592;52.094;4.330;2022-09-14T02:15:42;47.57;46.25;53.47;;
59691;Laerm;45592;52.094;4.330;2022-09-14T02:18:07;47.57;46.18;55.22;;
59691;Laerm;45592;52.094;4.330;2022-09-14T02:20:38;47.55;46.20;55.11;;
59691;Laerm;45592;52.094;4.330;2022-09-14T02:23:05;47.57;46.15;55.06;;
59691;Laerm;45592;52.094;4.330;2022-09-14T02:25:32;47.57;46.18;55.00;;
59691;Laerm;45592;52.094;4.330;2022-09-14T02:27:57;47.53;46.23;53.29;;
59691;Laerm;45592;52.094;4.330;2022-09-14T02:30:22;47.50;46.33;53.61;;
59691;Laerm;45592;52.094;4.330;2022-09-14T02:33:03;47.50;46.13;53.28;;
59691;Laerm;45592;52.094;4.330;2022-09-14T02:35:49;47.53;45.99;53.30;;
59691;Laerm;45592;52.094;4.330;2022-09-14T02:38:35;47.49;46.10;55.28;;
59691;Laerm;45592;52.094;4.330;2022-09-14T02:46:41;47.55;46.28;55.15;;
59691;Laerm;45592;52.094;4.330;2022-09-14T02:49:26;47.54;46.13;54.82;;
59691;Laerm;45592;52.094;4.330;2022-09-14T02:52:01;47.56;46.25;54.94;;
59691;Laerm;45592;52.094;4.330;2022-09-14T02:54:36;47.60;46.28;53.36;;
59691;Laerm;45592;52.094;4.330;2022-09-14T02:57:03;47.56;46.28;53.42;;
59691;Laerm;45592;52.094;4.330;2022-09-14T02:59:29;47.56;46.35;55.05;;
59691;Laerm;45592;52.094;4.330;2022-09-14T03:01:57;47.60;46.30;54.79;;
59691;Laerm;45592;52.094;4.330;2022-09-14T03:04:23;47.58;46.23;55.28;;
59691;Laerm;45592;52.094;4.330;2022-09-14T03:06:49;47.58;46.23;54.85;;
59691;Laerm;45592;52.094;4.330;2022-09-14T03:09:14;47.55;45.99;53.35;;
59691;Laerm;45592;52.094;4.330;2022-09-14T03:11:39;47.57;46.25;55.11;;
59691;Laerm;45592;52.094;4.330;2022-09-14T03:14:05;47.57;46.38;53.39;;
59691;Laerm;45592;52.094;4.330;2022-09-14T03:16:30;47.58;46.25;53.45;;
59691;Laerm;45592;52.094;4.330;2022-09-14T03:18:56;47.57;46.29;56.98;;
59691;Laerm;45592;52.094;4.330;2022-09-14T03:21:21;47.59;46.02;55.04;;
59691;Laerm;45592;52.094;4.330;2022-09-14T03:23:48;47.55;46.22;55.12;;
59691;Laerm;45592;52.094;4.330;2022-09-14T03:26:17;47.58;46.23;55.08;;
59691;Laerm;45592;52.094;4.330;2022-09-14T03:28:44;47.60;46.15;55.02;;
59691;Laerm;45592;52.094;4.330;2022-09-14T03:31:11;47.57;46.25;53.45;;
59691;Laerm;45592;52.094;4.330;2022-09-14T03:33:36;47.58;46.38;55.15;;
59691;Laerm;45592;52.094;4.330;2022-09-14T03:36:13;47.55;46.35;53.33;;
59691;Laerm;45592;52.094;4.330;2022-09-14T03:38:48;47.56;46.30;48.77;;
59691;Laerm;45592;52.094;4.330;2022-09-14T03:41:13;47.55;46.29;51.66;;
59691;Laerm;45592;52.094;4.330;2022-09-14T03:43:40;47.52;46.23;48.91;;
59691;Laerm;45592;52.094;4.330;2022-09-14T03:46:10;47.54;46.33;49.97;;
59691;Laerm;45592;52.094;4.330;2022-09-14T03:48:36;47.55;46.45;52.84;;
59691;Laerm;45592;52.094;4.330;2022-09-14T03:51:03;47.58;46.43;48.92;;
59691;Laerm;45592;52.094;4.330;2022-09-14T03:53:29;47.59;46.38;51.26;;
59691;Laerm;45592;52.094;4.330;2022-09-14T03:55:55;47.61;46.30;50.67;;
59691;Laerm;45592;52.094;4.330;2022-09-14T03:58:22;47.55;46.33;48.73;;
59691;Laerm;45592;52.094;4.330;2022-09-14T04:00:48;47.55;46.45;48.81;;
59691;Laerm;45592;52.094;4.330;2022-09-14T04:03:13;47.55;46.43;50.39;;
59691;Laerm;45592;52.094;4.330;2022-09-14T04:05:39;47.53;46.30;49.30;;
59691;Laerm;45592;52.094;4.330;2022-09-14T04:08:04;47.53;46.35;48.84;;
59691;Laerm;45592;52.094;4.330;2022-09-14T04:10:30;47.58;46.29;49.09;;
59691;Laerm;45592;52.094;4.330;2022-09-14T04:12:56;47.57;46.40;52.01;;
59691;Laerm;45592;52.094;4.330;2022-09-14T04:15:22;47.55;46.18;49.03;;
59691;Laerm;45592;52.094;4.330;2022-09-14T04:17:47;47.52;46.43;49.97;;
59691;Laerm;45592;52.094;4.330;2022-09-14T04:20:12;47.50;46.38;48.84;;
59691;Laerm;45592;52.094;4.330;2022-09-14T04:22:38;47.49;46.43;48.80;;
59691;Laerm;45592;52.094;4.330;2022-09-14T04:25:03;47.50;46.28;48.58;;
59691;Laerm;45592;52.094;4.330;2022-09-14T04:27:29;47.50;46.23;51.94;;
59691;Laerm;45592;52.094;4.330;2022-09-14T04:29:55;47.51;46.30;50.09;;
59691;Laerm;45592;52.094;4.330;2022-09-14T04:32:20;47.51;46.15;48.66;;
59691;Laerm;45592;52.094;4.330;2022-09-14T04:34:47;47.51;46.35;48.71;;
59691;Laerm;45592;52.094;4.330;2022-09-14T04:37:13;47.52;46.28;50.05;;
59691;Laerm;45592;52.094;4.330;2022-09-14T04:39:38;47.51;46.50;48.63;;
59691;Laerm;45592;52.094;4.330;2022-09-14T04:42:04;47.51;46.20;51.66;;
59691;Laerm;45592;52.094;4.330;2022-09-14T04:44:29;47.52;46.50;50.08;;
59691;Laerm;45592;52.094;4.330;2022-09-14T04:46:54;47.50;46.28;48.70;;
59691;Laerm;45592;52.094;4.330;2022-09-14T04:49:20;47.51;46.28;50.34;;
59691;Laerm;45592;52.094;4.330;2022-09-14T04:51:46;47.52;46.25;50.72;;
59691;Laerm;45592;52.094;4.330;2022-09-14T04:54:14;47.52;46.28;49.00;;
59691;Laerm;45592;52.094;4.330;2022-09-14T04:56:40;47.54;46.30;48.92;;
59691;Laerm;45592;52.094;4.330;2022-09-14T04:59:05;47.52;46.33;49.15;;
59691;Laerm;45592;52.094;4.330;2022-09-14T05:01:36;47.38;46.25;54.08;;
59691;Laerm;45592;52.094;4.330;2022-09-14T05:04:03;47.33;46.20;48.90;;
59691;Laerm;45592;52.094;4.330;2022-09-14T05:06:31;47.33;46.10;48.40;;
59691;Laerm;45592;52.094;4.330;2022-09-14T05:08:58;47.33;46.05;48.49;;
59691;Laerm;45592;52.094;4.330;2022-09-14T05:11:27;47.34;46.15;48.64;;
59691;Laerm;45592;52.094;4.330;2022-09-14T05:13:54;47.33;46.23;48.39;;
59691;Laerm;45592;52.094;4.330;2022-09-14T05:16:25;47.33;46.20;48.36;;
59691;Laerm;45592;52.094;4.330;2022-09-14T05:18:53;47.35;46.20;48.80;;
59691;Laerm;45592;52.094;4.330;2022-09-14T05:21:20;47.36;46.05;51.26;;
59691;Laerm;45592;52.094;4.330;2022-09-14T05:23:46;47.38;46.20;51.53;;
59691;Laerm;45592;52.094;4.330;2022-09-14T05:26:12;47.39;46.10;51.67;;
59691;Laerm;45592;52.094;4.330;2022-09-14T05:28:38;47.37;46.28;51.41;;
59691;Laerm;45592;52.094;4.330;2022-09-14T05:31:09;47.38;46.30;51.60;;
59691;Laerm;45592;52.094;4.330;2022-09-14T05:33:34;47.37;46.07;51.82;;
59691;Laerm;45592;52.094;4.330;2022-09-14T05:36:05;47.38;46.20;51.36;;
59691;Laerm;45592;52.094;4.330;2022-09-14T05:38:32;47.39;45.99;51.33;;
59691;Laerm;45592;52.094;4.330;2022-09-14T05:40:57;47.39;46.20;51.47;;
59691;Laerm;45592;52.094;4.330;2022-09-14T05:43:23;47.41;46.23;51.56;;
59691;Laerm;45592;52.094;4.330;2022-09-14T05:45:49;47.37;46.18;52.04;;
59691;Laerm;45592;52.094;4.330;2022-09-14T05:48:14;47.38;46.30;52.68;;
59691;Laerm;45592;52.094;4.330;2022-09-14T05:50:40;47.38;46.25;51.74;;
59691;Laerm;45592;52.094;4.330;2022-09-14T05:53:06;47.38;46.40;51.45;;
59691;Laerm;45592;52.094;4.330;2022-09-14T05:55:31;47.39;46.32;52.50;;
59691;Laerm;45592;52.094;4.330;2022-09-14T05:57:56;47.39;46.33;51.83;;
59691;Laerm;45592;52.094;4.330;2022-09-14T06:00:22;47.40;46.10;51.45;;
59691;Laerm;45592;52.094;4.330;2022-09-14T06:02:48;47.39;46.07;51.50;;
59691;Laerm;45592;52.094;4.330;2022-09-14T06:05:14;47.38;46.23;52.85;;
59691;Laerm;45592;52.094;4.330;2022-09-14T06:07:40;47.39;46.07;52.56;;
59691;Laerm;45592;52.094;4.330;2022-09-14T06:10:06;47.37;46.30;51.93;;
59691;Laerm;45592;52.094;4.330;2022-09-14T06:12:31;47.38;46.18;51.37;;
59691;Laerm;45592;52.094;4.330;2022-09-14T06:14:57;47.37;46.25;51.36;;
59691;Laerm;45592;52.094;4.330;2022-09-14T06:17:22;47.38;46.13;52.15;;
59691;Laerm;45592;52.094;4.330;2022-09-14T06:19:48;47.38;46.23;51.63;;
59691;Laerm;45592;52.094;4.330;2022-09-14T06:22:13;47.38;46.28;52.89;;
59691;Laerm;45592;52.094;4.330;2022-09-14T06:24:38;47.38;46.20;51.81;;
59691;Laerm;45592;52.094;4.330;2022-09-14T06:27:04;47.39;46.20;52.74;;
59691;Laerm;45592;52.094;4.330;2022-09-14T06:29:33;47.39;45.97;51.46;;
59691;Laerm;45592;52.094;4.330;2022-09-14T06:31:58;47.38;46.43;51.46;;
59691;Laerm;45592;52.094;4.330;2022-09-14T06:34:23;47.38;46.23;51.95;;
59691;Laerm;45592;52.094;4.330;2022-09-14T06:36:48;47.39;46.20;51.64;;
59691;Laerm;45592;52.094;4.330;2022-09-14T06:39:14;47.40;46.38;51.72;;
59691;Laerm;45592;52.094;4.330;2022-09-14T06:41:39;47.40;46.30;51.47;;
59691;Laerm;45592;52.094;4.330;2022-09-14T06:44:04;47.39;46.10;51.84;;
59691;Laerm;45592;52.094;4.330;2022-09-14T06:46:32;47.39;46.30;51.82;;
59691;Laerm;45592;52.094;4.330;2022-09-14T06:49:03;47.39;46.30;51.61;;
59691;Laerm;45592;52.094;4.330;2022-09-14T06:51:40;47.41;46.38;52.37;;
59691;Laerm;45592;52.094;4.330;2022-09-14T06:54:07;47.41;46.15;52.80;;
59691;Laerm;45592;52.094;4.330;2022-09-14T06:56:34;47.40;46.23;51.96;;
59691;Laerm;45592;52.094;4.330;2022-09-14T06:59:00;47.40;46.15;52.03;;
59691;Laerm;45592;52.094;4.330;2022-09-14T07:01:26;47.39;46.30;51.47;;
59691;Laerm;45592;52.094;4.330;2022-09-14T07:03:52;47.39;46.20;51.53;;
59691;Laerm;45592;52.094;4.330;2022-09-14T07:06:25;47.41;46.25;51.90;;
59691;Laerm;45592;52.094;4.330;2022-09-14T07:08:52;48.61;46.13;52.60;;
59691;Laerm;45592;52.094;4.330;2022-09-14T07:11:20;47.95;46.25;53.30;;
59691;Laerm;45592;52.094;4.330;2022-09-14T07:13:46;47.35;46.23;50.53;;
59691;Laerm;45592;52.094;4.330;2022-09-14T07:16:12;47.33;46.20;50.64;;
59691;Laerm;45592;52.094;4.330;2022-09-14T07:18:38;47.34;46.20;50.77;;
59691;Laerm;45592;52.094;4.330;2022-09-14T07:21:06;47.34;46.05;48.45;;
59691;Laerm;45592;52.094;4.330;2022-09-14T07:23:34;47.35;46.23;51.34;;
59691;Laerm;45592;52.094;4.330;2022-09-14T07:26:02;47.34;46.33;48.49;;
59691;Laerm;45592;52.094;4.330;2022-09-14T07:28:29;47.33;46.34;48.29;;
59691;Laerm;45592;52.094;4.330;2022-09-14T07:30:54;47.35;46.18;48.51;;
59691;Laerm;45592;52.094;4.330;2022-09-14T07:33:20;47.34;46.07;53.21;;
59691;Laerm;45592;52.094;4.330;2022-09-14T07:35:45;47.35;46.20;48.37;;
59691;Laerm;45592;52.094;4.330;2022-09-14T07:38:10;47.35;46.25;48.58;;
59691;Laerm;45592;52.094;4.330;2022-09-14T07:40:36;47.36;46.05;50.86;;
59691;Laerm;45592;52.094;4.330;2022-09-14T07:43:01;48.00;46.35;57.32;;
59691;Laerm;45592;52.094;4.330;2022-09-14T07:45:26;49.33;47.34;54.54;;
59691;Laerm;45592;52.094;4.330;2022-09-14T07:47:52;48.84;47.10;50.94;;
59691;Laerm;45592;52.094;4.330;2022-09-14T07:50:17;48.09;47.00;51.29;;
59691;Laerm;45592;52.094;4.330;2022-09-14T07:52:43;47.86;46.64;49.34;;
59691;Laerm;45592;52.094;4.330;2022-09-14T07:55:09;47.73;46.43;48.94;;
59691;Laerm;45592;52.094;4.330;2022-09-14T07:57:36;47.47;46.45;51.51;;
59691;Laerm;45592;52.094;4.330;2022-09-14T08:00:02;47.45;46.38;52.53;;
59691;Laerm;45592;52.094;4.330;2022-09-14T08:02:28;47.47;46.38;53.60;;
59691;Laerm;45592;52.094;4.330;2022-09-14T08:04:53;47.52;46.35;51.34;;
59691;Laerm;45592;52.094;4.330;2022-09-14T08:07:19;47.38;46.25;53.10;;
59691;Laerm;45592;52.094;4.330;2022-09-14T08:09:44;47.40;46.15;55.13;;
59691;Laerm;45592;52.094;4.330;2022-09-14T08:12:11;47.41;46.33;53.69;;
59691;Laerm;45592;52.094;4.330;2022-09-14T08:14:36;47.41;46.10;55.01;;
59691;Laerm;45592;52.094;4.330;2022-09-14T08:17:02;47.43;46.33;55.64;;
59691;Laerm;45592;52.094;4.330;2022-09-14T08:19:27;47.40;46.13;54.66;;
59691;Laerm;45592;52.094;4.330;2022-09-14T08:21:53;47.41;46.30;55.64;;
59691;Laerm;45592;52.094;4.330;2022-09-14T08:24:20;47.41;46.30;55.15;;
59691;Laerm;45592;52.094;4.330;2022-09-14T08:26:46;47.38;46.30;55.41;;
59691;Laerm;45592;52.094;4.330;2022-09-14T08:29:13;47.40;46.25;56.01;;
59691;Laerm;45592;52.094;4.330;2022-09-14T08:31:39;47.38;46.33;54.53;;
59691;Laerm;45592;52.094;4.330;2022-09-14T08:34:05;47.39;46.43;55.68;;
59691;Laerm;45592;52.094;4.330;2022-09-14T08:36:34;47.40;46.28;51.07;;
59691;Laerm;45592;52.094;4.330;2022-09-14T08:39:00;47.40;46.25;55.52;;
59691;Laerm;45592;52.094;4.330;2022-09-14T08:44:29;47.40;46.28;55.39;;
59691;Laerm;45592;52.094;4.330;2022-09-14T08:47:08;47.37;46.18;53.20;;
59691;Laerm;45592;52.094;4.330;2022-09-14T08:49:46;47.38;46.18;55.72;;
59691;Laerm;45592;52.094;4.330;2022-09-14T08:52:36;47.40;46.33;55.00;;
59691;Laerm;45592;52.094;4.330;2022-09-14T08:55:30;47.41;46.23;56.85;;
59691;Laerm;45592;52.094;4.330;2022-09-14T08:58:06;47.42;46.40;54.19;;
59691;Laerm;45592;52.094;4.330;2022-09-14T09:00:43;47.49;45.99;56.37;;
59691;Laerm;45592;52.094;4.330;2022-09-14T09:05:51;47.47;46.23;56.03;;
59691;Laerm;45592;52.094;4.330;2022-09-14T09:10:51;47.45;46.18;56.16;;
59691;Laerm;45592;52.094;4.330;2022-09-14T09:13:20;47.46;45.94;55.90;;
59691;Laerm;45592;52.094;4.330;2022-09-14T09:15:54;47.48;46.35;55.45;;
59691;Laerm;45592;52.094;4.330;2022-09-14T09:21:08;47.48;46.38;55.88;;
59691;Laerm;45592;52.094;4.330;2022-09-14T09:23:36;47.48;46.13;55.74;;
59691;Laerm;45592;52.094;4.330;2022-09-14T09:28:52;47.47;45.99;55.84;;
59691;Laerm;45592;52.094;4.330;2022-09-14T09:31:22;47.63;46.13;53.71;;
59691;Laerm;45592;52.094;4.330;2022-09-14T09:33:50;47.77;46.25;55.02;;
59691;Laerm;45592;52.094;4.330;2022-09-14T09:36:16;50.73;46.33;54.81;;
59691;Laerm;45592;52.094;4.330;2022-09-14T09:38:42;47.56;46.45;56.27;;
59691;Laerm;45592;52.094;4.330;2022-09-14T09:41:23;47.77;46.35;51.21;;
59691;Laerm;45592;52.094;4.330;2022-09-14T09:43:57;47.70;46.38;57.83;;
59691;Laerm;45592;52.094;4.330;2022-09-14T09:46:25;47.76;46.45;52.37;;
59691;Laerm;45592;52.094;4.330;2022-09-14T09:48:51;47.80;46.43;52.14;;
59691;Laerm;45592;52.094;4.330;2022-09-14T09:53:51;48.95;47.10;50.41;;
59691;Laerm;45592;52.094;4.330;2022-09-14T09:56:21;49.02;47.54;57.50;;
59691;Laerm;45592;52.094;4.330;2022-09-14T09:58:47;47.86;46.41;54.09;;
59691;Laerm;45592;52.094;4.330;2022-09-14T10:01:27;47.53;45.97;49.16;;
59691;Laerm;45592;52.094;4.330;2022-09-14T10:06:28;47.53;46.38;49.23;;
59691;Laerm;45592;52.094;4.330;2022-09-14T10:08:55;47.53;46.43;49.14;;
59691;Laerm;45592;52.094;4.330;2022-09-14T10:13:55;47.55;46.33;49.32;;
59691;Laerm;45592;52.094;4.330;2022-09-14T10:16:21;47.54;46.48;49.43;;
59691;Laerm;45592;52.094;4.330;2022-09-14T10:18:48;47.50;46.43;49.11;;
59691;Laerm;45592;52.094;4.330;2022-09-14T10:21:16;47.49;46.38;49.24;;
59691;Laerm;45592;52.094;4.330;2022-09-14T10:23:43;47.54;46.40;49.14;;
59691;Laerm;45592;52.094;4.330;2022-09-14T10:26:16;47.54;46.38;49.41;;
59691;Laerm;45592;52.094;4.330;2022-09-14T10:28:44;47.53;46.50;49.32;;
59691;Laerm;45592;52.094;4.330;2022-09-14T10:33:51;47.54;46.55;49.29;;
59691;Laerm;45592;52.094;4.330;2022-09-14T10:36:24;47.57;46.30;49.50;;
59691;Laerm;45592;52.094;4.330;2022-09-14T10:42:13;47.47;46.05;49.29;;
59691;Laerm;45592;52.094;4.330;2022-09-14T10:55:30;47.35;46.23;49.63;;
59691;Laerm;45592;52.094;4.330;2022-09-14T11:00:41;51.22;46.22;57.34;;
59691;Laerm;45592;52.094;4.330;2022-09-14T11:03:22;53.39;46.69;56.79;;
59691;Laerm;45592;52.094;4.330;2022-09-14T11:06:28;47.51;46.30;49.55;;
59691;Laerm;45592;52.094;4.330;2022-09-14T11:12:25;47.57;46.15;51.22;;
59691;Laerm;45592;52.094;4.330;2022-09-14T11:14:41;47.65;46.38;52.15;;
59691;Laerm;45592;52.094;4.330;2022-09-14T11:20:05;47.60;46.28;51.17;;
59691;Laerm;45592;52.094;4.330;2022-09-14T11:25:25;47.45;46.05;51.03;;
59691;Laerm;45592;52.094;4.330;2022-09-14T11:28:03;47.44;46.20;49.51;;
59691;Laerm;45592;52.094;4.330;2022-09-14T11:30:35;47.43;46.13;49.15;;
59691;Laerm;45592;52.094;4.330;2022-09-14T11:35:40;50.18;46.40;61.51;;
59691;Laerm;45592;52.094;4.330;2022-09-14T11:38:16;48.76;46.48;60.41;;
59691;Laerm;45592;52.094;4.330;2022-09-14T11:40:55;51.03;46.50;64.36;;
59691;Laerm;45592;52.094;4.330;2022-09-14T11:43:28;51.80;47.24;65.51;;
59691;Laerm;45592;52.094;4.330;2022-09-14T11:46:26;53.13;47.74;62.97;;
59691;Laerm;45592;52.094;4.330;2022-09-14T11:49:16;54.69;47.54;61.75;;
59691;Laerm;45592;52.094;4.330;2022-09-14T11:51:56;56.79;46.95;62.53;;
59691;Laerm;45592;52.094;4.330;2022-09-14T11:54:24;56.96;50.62;63.36;;
59691;Laerm;45592;52.094;4.330;2022-09-14T11:56:52;56.38;48.05;69.64;;
59691;Laerm;45592;52.094;4.330;2022-09-14T11:59:56;55.28;47.32;65.58;;
59691;Laerm;45592;52.094;4.330;2022-09-14T12:35:56;48.10;46.28;58.15;;
59691;Laerm;45592;52.094;4.330;2022-09-14T12:40:54;47.84;46.20;57.99;;
59691;Laerm;45592;52.094;4.330;2022-09-14T12:56:43;47.50;46.22;54.06;;
59691;Laerm;45592;52.094;4.330;2022-09-14T12:59:34;47.44;46.07;55.39;;
59691;Laerm;45592;52.094;4.330;2022-09-14T13:05:03;47.45;46.35;54.65;;
59691;Laerm;45592;52.094;4.330;2022-09-14T13:07:33;47.46;46.25;54.83;;
59691;Laerm;45592;52.094;4.330;2022-09-14T13:10:02;47.71;46.30;55.12;;
59691;Laerm;45592;52.094;4.330;2022-09-14T13:12:42;47.57;46.43;56.16;;
59691;Laerm;45592;52.094;4.330;2022-09-14T13:15:19;47.53;46.23;56.04;;
59691;Laerm;45592;52.094;4.330;2022-09-14T13:18:03;47.56;46.30;56.31;;
59691;Laerm;45592;52.094;4.330;2022-09-14T13:20:31;47.57;46.35;56.70;;
59691;Laerm;45592;52.094;4.330;2022-09-14T13:22:57;47.57;46.52;57.47;;
59691;Laerm;45592;52.094;4.330;2022-09-14T13:25:31;47.55;46.25;57.15;;
59691;Laerm;45592;52.094;4.330;2022-09-14T13:28:03;47.59;46.33;57.54;;
59691;Laerm;45592;52.094;4.330;2022-09-14T13:30:30;50.77;46.76;58.19;;
59691;Laerm;45592;52.094;4.330;2022-09-14T13:32:57;53.58;49.65;60.57;;
59691;Laerm;45592;52.094;4.330;2022-09-14T13:35:36;56.05;49.78;60.47;;
59691;Laerm;45592;52.094;4.330;2022-09-14T13:38:08;50.92;49.56;57.67;;
59691;Laerm;45592;52.094;4.330;2022-09-14T13:40:38;50.88;49.45;57.74;;
59691;Laerm;45592;52.094;4.330;2022-09-14T13:43:03;50.87;49.65;58.23;;
59691;Laerm;45592;52.094;4.330;2022-09-14T13:45:29;50.76;49.56;57.41;;
59691;Laerm;45592;52.094;4.330;2022-09-14T13:47:55;50.64;49.24;56.88;;
59691;Laerm;45592;52.094;4.330;2022-09-14T13:50:22;50.28;46.38;57.43;;
59691;Laerm;45592;52.094;4.330;2022-09-14T13:52:50;47.45;46.15;56.40;;
59691;Laerm;45592;52.094;4.330;2022-09-14T13:55:20;49.50;46.23;57.95;;
59691;Laerm;45592;52.094;4.330;2022-09-14T14:03:39;52.18;46.52;56.64;;
59691;Laerm;45592;52.094;4.330;2022-09-14T14:06:26;52.96;48.03;58.13;;
59691;Laerm;45592;52.094;4.330;2022-09-14T14:11:26;51.70;49.73;58.07;;
59691;Laerm;45592;52.094;4.330;2022-09-14T14:13:52;50.37;46.38;57.35;;
59691;Laerm;45592;52.094;4.330;2022-09-14T14:16:20;47.45;46.38;54.82;;
59691;Laerm;45592;52.094;4.330;2022-09-14T14:18:52;47.59;46.22;55.96;;
59691;Laerm;45592;52.094;4.330;2022-09-14T14:23:47;48.82;46.10;57.33;;
59691;Laerm;45592;52.094;4.330;2022-09-14T14:26:17;48.79;46.35;53.64;;
59691;Laerm;45592;52.094;4.330;2022-09-14T14:28:44;48.65;46.38;57.05;;
59691;Laerm;45592;52.094;4.330;2022-09-14T14:31:13;48.64;46.20;57.19;;
59691;Laerm;45592;52.094;4.330;2022-09-14T14:33:47;48.77;46.38;58.19;;
59691;Laerm;45592;52.094;4.330;2022-09-14T14:36:13;48.74;46.45;57.43;;
59691;Laerm;45592;52.094;4.330;2022-09-14T14:38:40;48.66;46.48;57.82;;
59691;Laerm;45592;52.094;4.330;2022-09-14T14:41:11;48.47;46.45;56.51;;
59691;Laerm;45592;52.094;4.330;2022-09-14T14:43:37;48.65;46.43;57.59;;
59691;Laerm;45592;52.094;4.330;2022-09-14T14:46:05;48.51;46.40;58.31;;
59691;Laerm;45592;52.094;4.330;2022-09-14T14:48:31;48.16;46.40;56.07;;
59691;Laerm;45592;52.094;4.330;2022-09-14T14:50:56;47.77;46.10;57.35;;
59691;Laerm;45592;52.094;4.330;2022-09-14T14:53:23;47.65;46.43;56.90;;
59691;Laerm;45592;52.094;4.330;2022-09-14T14:55:48;47.69;46.38;57.82;;
59691;Laerm;45592;52.094;4.330;2022-09-14T14:58:16;47.67;46.40;57.86;;
59691;Laerm;45592;52.094;4.330;2022-09-14T15:00:42;47.68;46.45;58.30;;
59691;Laerm;45592;52.094;4.330;2022-09-14T15:03:08;47.69;46.38;57.70;;
59691;Laerm;45592;52.094;4.330;2022-09-14T15:05:38;47.70;46.33;57.73;;
59691;Laerm;45592;52.094;4.330;2022-09-14T15:08:04;47.71;46.35;57.35;;
59691;Laerm;45592;52.094;4.330;2022-09-14T15:10:29;47.65;46.40;57.00;;
59691;Laerm;45592;52.094;4.330;2022-09-14T15:12:55;47.73;46.25;57.04;;
59691;Laerm;45592;52.094;4.330;2022-09-14T15:15:23;47.80;46.59;56.03;;
59691;Laerm;45592;52.094;4.330;2022-09-14T15:17:49;47.92;46.57;57.47;;
59691;Laerm;45592;52.094;4.330;2022-09-14T15:20:15;47.87;46.57;57.30;;
59691;Laerm;45592;52.094;4.330;2022-09-14T15:22:42;47.73;46.48;56.44;;
59691;Laerm;45592;52.094;4.330;2022-09-14T15:25:09;47.74;46.43;57.36;;
59691;Laerm;45592;52.094;4.330;2022-09-14T15:27:35;47.73;46.59;56.99;;
59691;Laerm;45592;52.094;4.330;2022-09-14T15:30:00;47.68;46.55;57.18;;
59691;Laerm;45592;52.094;4.330;2022-09-14T15:32:26;47.65;46.43;57.78;;
59691;Laerm;45592;52.094;4.330;2022-09-14T15:34:52;47.62;46.35;57.20;;
59691;Laerm;45592;52.094;4.330;2022-09-14T15:37:18;47.65;46.32;57.47;;
59691;Laerm;45592;52.094;4.330;2022-09-14T15:39:43;47.64;46.55;57.13;;
59691;Laerm;45592;52.094;4.330;2022-09-14T15:42:11;47.64;46.50;57.09;;
59691;Laerm;45592;52.094;4.330;2022-09-14T15:44:37;47.71;46.50;57.08;;
59691;Laerm;45592;52.094;4.330;2022-09-14T15:47:02;47.89;46.52;57.89;;
59691;Laerm;45592;52.094;4.330;2022-09-14T15:49:28;47.97;46.62;57.50;;
59691;Laerm;45592;52.094;4.330;2022-09-14T15:51:54;47.78;46.43;57.70;;
59691;Laerm;45592;52.094;4.330;2022-09-14T15:54:22;47.67;46.25;57.28;;
59691;Laerm;45592;52.094;4.330;2022-09-14T15:56:49;47.55;46.30;56.25;;
59691;Laerm;45592;52.094;4.330;2022-09-14T15:59:16;47.54;46.07;56.73;;
59691;Laerm;45592;52.094;4.330;2022-09-14T16:01:42;47.56;46.23;56.72;;
59691;Laerm;45592;52.094;4.330;2022-09-14T16:04:07;47.55;46.33;57.11;;
59691;Laerm;45592;52.094;4.330;2022-09-14T16:06:33;47.52;46.23;56.93;;
59691;Laerm;45592;52.094;4.330;2022-09-14T16:09:06;47.62;46.02;56.82;;
59691;Laerm;45592;52.094;4.330;2022-09-14T16:11:33;47.70;46.40;57.34;;